createdAt,value
2023-02-19T00:01:38.537Z,12.23
2023-02-19T00:06:43.289Z,13.33
2023-02-19T00:11:48.672Z,11.30
2023-02-19T00:16:52.073Z,13.57
2023-02-19T00:21:56.158Z,11.27
2023-02-19T00:27:00.939Z,12.07
2023-02-19T00:32:04.501Z,12.27
2023-02-19T00:37:07.931Z,10.70
2023-02-19T00:42:12.715Z,13.17
2023-02-19T00:47:16.185Z,12.10
2023-02-19T00:52:19.810Z,10.10
2023-02-19T00:57:24.925Z,9.80
2023-02-19T01:02:28.321Z,13.53
2023-02-19T01:07:32.062Z,10.70
2023-02-19T01:12:36.907Z,11.13
2023-02-19T01:17:40.322Z,10.33
2023-02-19T01:22:43.904Z,11.90
2023-02-19T01:27:48.716Z,11.03
2023-02-19T01:32:53.758Z,13.93
2023-02-19T01:37:57.154Z,11.60
2023-02-19T01:43:03.744Z,11.87
2023-02-19T01:48:12.357Z,13.97
2023-02-19T01:53:19.384Z,11.20
2023-02-19T01:58:25.594Z,10.57
2023-02-19T02:03:29.944Z,11.47
2023-02-19T02:08:52.352Z,11.17
2023-02-19T02:14:00.098Z,10.13
2023-02-19T02:19:15.986Z,8.77
2023-02-19T02:24:38.842Z,8.70
2023-02-19T02:30:24.132Z,8.63
2023-02-19T02:35:31.846Z,10.20
2023-02-19T02:40:36.403Z,9.27
2023-02-19T02:45:42.951Z,8.60
2023-02-19T02:51:03.880Z,9.87
2023-02-19T02:56:14.708Z,9.20
2023-02-19T03:01:41.657Z,9.13
2023-02-19T03:06:48.331Z,9.90
2023-02-19T03:12:11.389Z,11.50
2023-02-19T03:17:40.818Z,7.83
2023-02-19T03:22:47.910Z,10.17
2023-02-19T03:27:53.577Z,8.73
2023-02-19T03:33:01.419Z,11.37
2023-02-19T03:38:12.522Z,8.60
2023-02-19T03:43:22.995Z,8.23
2023-02-19T03:48:33.616Z,10.63
2023-02-19T03:53:48.875Z,10.30
2023-02-19T03:58:58.092Z,8.67
2023-02-19T04:04:09.150Z,10.67
2023-02-19T04:09:15.867Z,9.30
2023-02-19T04:14:28.199Z,11.57
2023-02-19T04:19:38.162Z,11.77
2023-02-19T04:24:47.483Z,12.63
2023-02-19T04:29:51.191Z,12.43
2023-02-19T04:34:55.996Z,9.93
2023-02-19T04:39:59.363Z,11.73
2023-02-19T04:45:03.240Z,11.73
2023-02-19T04:50:09.077Z,12.33
2023-02-19T04:55:12.447Z,13.03
2023-02-19T05:00:16.624Z,11.90
2023-02-19T05:05:21.357Z,13.40
2023-02-19T05:10:24.833Z,10.70
2023-02-19T05:15:28.204Z,13.33
2023-02-19T05:20:33.034Z,12.33
2023-02-19T05:25:36.637Z,13.43
2023-02-19T05:30:40.370Z,12.33
2023-02-19T05:35:47.067Z,14.67
2023-02-19T05:40:50.497Z,15.80
2023-02-19T05:45:53.936Z,12.83
2023-02-19T05:51:03.576Z,14.60
2023-02-19T05:56:25.169Z,15.63
2023-02-19T06:01:30.447Z,16.27
2023-02-19T06:06:35.489Z,14.03
2023-02-19T06:11:39.522Z,13.47
2023-02-19T06:16:43.696Z,14.40
2023-02-19T06:21:51.640Z,14.83
2023-02-19T06:26:55.034Z,12.87
2023-02-19T06:31:58.569Z,11.90
2023-02-19T06:37:03.698Z,16.77
2023-02-19T06:42:07.163Z,13.70
2023-02-19T06:47:10.634Z,16.37
2023-02-19T06:52:15.425Z,17.50
2023-02-19T06:57:19.070Z,16.70
2023-02-19T07:02:22.413Z,17.23
2023-02-19T07:07:27.434Z,13.73
2023-02-19T07:12:30.873Z,17.17
2023-02-19T07:17:35.411Z,16.37
2023-02-19T07:22:40.438Z,15.77
2023-02-19T07:27:43.801Z,16.70
2023-02-19T07:32:47.149Z,16.87
2023-02-19T07:37:51.920Z,16.53
2023-02-19T07:42:55.278Z,19.27
2023-02-19T07:47:58.679Z,18.73
2023-02-19T07:53:03.435Z,17.33
2023-02-19T07:58:06.863Z,21.50
2023-02-19T08:03:10.656Z,15.67
2023-02-19T08:08:16.581Z,14.57
2023-02-19T08:13:20.509Z,15.80
2023-02-19T08:18:25.738Z,16.03
2023-02-19T08:23:31.021Z,15.93
2023-02-19T08:28:34.701Z,16.53
2023-02-19T08:33:38.453Z,14.67
2023-02-19T08:38:43.550Z,15.93
2023-02-19T08:43:46.960Z,17.80
2023-02-19T08:48:50.677Z,16.20
2023-02-19T08:53:55.689Z,13.27
2023-02-19T08:58:59.032Z,14.87
2023-02-19T09:04:02.693Z,14.47
2023-02-19T09:09:07.548Z,13.60
2023-02-19T09:14:11.104Z,13.57
2023-02-19T09:19:14.524Z,12.77
2023-02-19T09:24:19.255Z,13.50
2023-02-19T09:29:23.862Z,13.07
2023-02-19T09:34:28.045Z,12.93
2023-02-19T09:39:33.200Z,13.53
2023-02-19T09:44:39.583Z,12.77
2023-02-19T09:49:50.092Z,11.50
2023-02-19T09:54:59.349Z,11.17
2023-02-19T10:00:10.343Z,11.80
2023-02-19T10:05:15.726Z,11.60
2023-02-19T10:10:33.247Z,12.10
2023-02-19T10:15:42.587Z,11.23
2023-02-19T10:20:47.136Z,13.10
2023-02-19T10:25:57.143Z,12.97
2023-02-19T10:31:02.083Z,14.43
2023-02-19T10:36:08.919Z,11.17
2023-02-19T10:41:18.108Z,9.13
2023-02-19T10:46:24.857Z,9.33
2023-02-19T10:51:34.188Z,9.20
2023-02-19T10:56:40.820Z,8.80
2023-02-19T11:01:55.169Z,8.17
2023-02-19T11:06:58.664Z,9.23
2023-02-19T11:12:05.082Z,9.27
2023-02-19T11:17:08.877Z,8.30
2023-02-19T11:22:31.172Z,8.30
2023-02-19T11:27:35.959Z,7.15
2023-02-19T11:32:39.312Z,5.53
2023-02-19T11:37:56.366Z,8.53
2023-02-19T11:43:14.103Z,6.47
2023-02-19T11:48:34.001Z,7.57
2023-02-19T11:53:48.086Z,7.93
2023-02-19T11:59:00.938Z,7.70
2023-02-19T12:04:37.768Z,9.83
2023-02-19T12:09:59.957Z,9.03
2023-02-19T12:15:32.209Z,7.77
2023-02-19T12:20:44.033Z,6.80
2023-02-19T12:26:01.316Z,8.50
2023-02-19T12:31:35.788Z,11.80
2023-02-19T12:36:50.969Z,9.17
2023-02-19T12:42:03.521Z,11.37
2023-02-19T12:47:12.007Z,12.37
2023-02-19T12:52:20.220Z,11.33
2023-02-19T12:57:27.289Z,10.18
2023-02-19T13:02:39.579Z,11.73
2023-02-19T13:07:50.306Z,12.03
2023-02-19T13:12:56.774Z,9.63
2023-02-19T13:18:04.270Z,10.50
2023-02-19T13:23:30.468Z,7.50
2023-02-19T13:28:51.644Z,6.80
2023-02-19T13:34:06.987Z,7.17
2023-02-19T13:44:28.622Z,8.23
2023-02-19T13:49:43.424Z,6.03
2023-02-19T13:54:46.730Z,6.47
2023-02-19T13:59:51.051Z,5.93
2023-02-19T14:05:00.243Z,5.67
2023-02-19T14:10:04.954Z,5.50
2023-02-19T14:15:41.661Z,8.57
2023-02-19T14:20:47.747Z,6.70
2023-02-19T14:25:56.062Z,5.67
2023-02-19T14:31:02.375Z,7.13
2023-02-19T14:36:16.471Z,5.70
2023-02-19T14:47:46.256Z,5.07
2023-02-19T14:58:55.739Z,5.77
2023-02-19T15:04:52.815Z,7.07
2023-02-19T15:10:09.388Z,4.43
2023-02-19T15:15:20.574Z,5.27
2023-02-19T15:20:30.485Z,4.50
2023-02-19T15:25:39.611Z,6.50
2023-02-19T15:30:44.783Z,7.60
2023-02-19T15:35:53.280Z,5.00
2023-02-19T15:41:02.797Z,6.60
2023-02-19T15:46:22.570Z,6.27
2023-02-19T15:51:34.421Z,5.67
2023-02-19T15:56:47.384Z,6.67
2023-02-19T16:01:52.174Z,7.10
2023-02-19T16:07:02.195Z,6.50
2023-02-19T16:12:24.201Z,5.67
2023-02-19T16:17:31.560Z,6.23
2023-02-19T16:22:43.461Z,5.80
2023-02-19T16:27:49.584Z,5.90
2023-02-19T16:33:30.365Z,5.60
2023-02-19T16:38:34.337Z,7.87
2023-02-19T16:43:45.380Z,6.30
2023-02-19T16:48:50.882Z,10.67
2023-02-19T16:53:56.960Z,6.47
2023-02-19T16:59:07.503Z,7.83
2023-02-19T17:04:15.924Z,8.60
2023-02-19T17:09:35.677Z,9.10
2023-02-19T17:14:44.265Z,11.20
2023-02-19T17:19:49.007Z,8.30
2023-02-19T17:24:55.439Z,7.10
2023-02-19T17:30:03.258Z,6.70
2023-02-19T17:36:06.709Z,9.83
2023-02-19T17:41:11.889Z,7.53
2023-02-19T17:46:19.685Z,8.17
2023-02-19T17:51:25.695Z,9.27
2023-02-19T17:56:33.023Z,6.07
2023-02-19T18:01:38.975Z,5.77
2023-02-19T18:06:44.387Z,6.40
2023-02-19T18:11:48.821Z,5.77
2023-02-19T18:16:54.355Z,5.93
2023-02-19T18:21:59.219Z,5.03
2023-02-19T18:27:03.542Z,4.97
2023-02-19T18:32:10.742Z,7.10
2023-02-19T18:52:07.295Z,5.40
2023-02-19T18:57:17.207Z,6.93
2023-02-19T19:02:21.712Z,7.00
2023-02-19T19:07:27.931Z,6.13
2023-02-19T19:12:54.982Z,6.37
2023-02-19T19:18:00.720Z,4.73
2023-02-19T19:23:07.987Z,5.57
2023-02-19T19:28:12.868Z,5.90
2023-02-19T19:33:17.827Z,5.47
2023-02-19T19:38:34.894Z,7.80
2023-02-19T19:43:39.852Z,6.17
2023-02-19T19:48:43.814Z,4.97
2023-02-19T19:53:51.367Z,5.60
2023-02-19T19:59:02.763Z,5.77
2023-02-19T20:04:08.584Z,6.33
2023-02-19T20:09:25.700Z,6.03
2023-02-19T20:14:29.832Z,8.67
2023-02-19T20:19:35.920Z,5.90
2023-02-19T20:24:42.167Z,7.27
2023-02-19T20:29:53.387Z,7.67
2023-02-19T20:35:01.683Z,8.27
2023-02-19T20:40:10.633Z,7.77
2023-02-19T20:45:17.389Z,7.20
2023-02-19T20:50:23.714Z,8.63
2023-02-19T20:55:30.490Z,6.10
2023-02-19T21:00:35.944Z,8.80
2023-02-19T21:05:41.603Z,7.90
2023-02-19T21:10:49.516Z,9.37
2023-02-19T21:15:54.046Z,8.70
2023-02-19T21:20:58.403Z,9.43
2023-02-19T21:26:06.139Z,10.67
2023-02-19T21:31:11.148Z,7.83
2023-02-19T21:36:16.089Z,10.77
2023-02-19T21:41:21.762Z,9.77
2023-02-19T21:46:27.980Z,10.07
2023-02-19T21:51:35.145Z,9.57
2023-02-19T21:56:47.015Z,9.30
2023-02-19T22:01:53.721Z,13.80
2023-02-19T22:06:58.803Z,10.13
2023-02-19T22:12:04.460Z,8.87
2023-02-19T22:17:11.472Z,9.67
2023-02-19T22:22:16.831Z,11.63
2023-02-19T22:27:24.702Z,9.77
2023-02-19T22:32:28.956Z,10.30
2023-02-19T22:37:42.953Z,11.13
2023-02-19T22:42:51.474Z,10.57
2023-02-19T22:48:01.150Z,11.10
2023-02-19T22:53:11.957Z,11.77
2023-02-19T22:58:23.794Z,11.63
2023-02-19T23:03:32.325Z,12.03
2023-02-19T23:08:41.049Z,15.27
2023-02-19T23:13:51.732Z,12.27
2023-02-19T23:18:56.771Z,11.93
2023-02-19T23:24:02.543Z,15.20
2023-02-19T23:29:14.666Z,12.23
2023-02-19T23:34:22.171Z,13.87
2023-02-19T23:39:27.941Z,12.00
2023-02-19T23:44:35.504Z,14.90
2023-02-19T23:49:41.181Z,13.67
2023-02-19T23:54:52.457Z,12.83
